sensor_id;sensor_type;location;lat;lon;timestamp;pressure;altitude;pressure_sealevel;temperature;humidity
74915;BME280;63475;45.140;-75.616;2024-02-21T00:00:56;102178.00;;;-7.46;58.97
74915;BME280;63475;45.140;-75.616;2024-02-21T00:02:59;102169.25;;;-7.50;58.62
74915;BME280;63475;45.140;-75.616;2024-02-21T00:05:04;102170.88;;;-7.53;58.73
74915;BME280;63475;45.140;-75.616;2024-02-21T00:07:07;102179.53;;;-7.53;58.88
74915;BME280;63475;45.140;-75.616;2024-02-21T00:09:10;102178.59;;;-7.55;58.80
74915;BME280;63475;45.140;-75.616;2024-02-21T00:11:13;102185.47;;;-7.57;58.56
74915;BME280;63475;45.140;-75.616;2024-02-21T00:13:15;102176.66;;;-7.63;58.70
74915;BME280;63475;45.140;-75.616;2024-02-21T00:15:19;102178.31;;;-7.65;59.18
74915;BME280;63475;45.140;-75.616;2024-02-21T00:17:21;102175.63;;;-7.68;59.36
74915;BME280;63475;45.140;-75.616;2024-02-21T00:19:24;102175.50;;;-7.73;59.04
74915;BME280;63475;45.140;-75.616;2024-02-21T00:21:26;102179.81;;;-7.74;59.36
74915;BME280;63475;45.140;-75.616;2024-02-21T00:23:29;102174.44;;;-7.80;59.41
74915;BME280;63475;45.140;-75.616;2024-02-21T00:25:31;102176.09;;;-7.83;60.18
74915;BME280;63475;45.140;-75.616;2024-02-21T00:27:34;102180.34;;;-7.85;59.55
74915;BME280;63475;45.140;-75.616;2024-02-21T00:29:37;102181.06;;;-7.89;59.79
74915;BME280;63475;45.140;-75.616;2024-02-21T00:31:40;102174.09;;;-7.92;60.68
74915;BME280;63475;45.140;-75.616;2024-02-21T00:33:42;102172.25;;;-7.96;60.30
74915;BME280;63475;45.140;-75.616;2024-02-21T00:37:40;102173.03;;;-7.98;60.50
74915;BME280;63475;45.140;-75.616;2024-02-21T00:39:44;102177.31;;;-7.99;60.57
74915;BME280;63475;45.140;-75.616;2024-02-21T00:41:48;102176.31;;;-8.04;60.20
74915;BME280;63475;45.140;-75.616;2024-02-21T00:43:50;102181.47;;;-8.04;60.41
74915;BME280;63475;45.140;-75.616;2024-02-21T00:45:53;102178.81;;;-8.07;60.57
74915;BME280;63475;45.140;-75.616;2024-02-21T00:47:56;102173.59;;;-8.09;60.12
74915;BME280;63475;45.140;-75.616;2024-02-21T00:49:58;102171.78;;;-8.11;60.44
74915;BME280;63475;45.140;-75.616;2024-02-21T00:52:01;102162.13;;;-8.17;60.38
74915;BME280;63475;45.140;-75.616;2024-02-21T00:54:04;102166.44;;;-8.17;61.23
74915;BME280;63475;45.140;-75.616;2024-02-21T00:56:06;102163.75;;;-8.20;61.42
74915;BME280;63475;45.140;-75.616;2024-02-21T00:58:09;102165.44;;;-8.21;61.01
74915;BME280;63475;45.140;-75.616;2024-02-21T01:00:12;102156.72;;;-8.24;61.42
74915;BME280;63475;45.140;-75.616;2024-02-21T01:02:15;102157.47;;;-8.28;61.07
74915;BME280;63475;45.140;-75.616;2024-02-21T01:04:18;102151.41;;;-8.29;61.45
74915;BME280;63475;45.140;-75.616;2024-02-21T01:06:21;102146.16;;;-8.32;61.50
74915;BME280;63475;45.140;-75.616;2024-02-21T01:08:24;102158.22;;;-8.32;61.76
74915;BME280;63475;45.140;-75.616;2024-02-21T01:10:26;102149.50;;;-8.34;61.78
74915;BME280;63475;45.140;-75.616;2024-02-21T01:12:29;102151.16;;;-8.36;61.59
74915;BME280;63475;45.140;-75.616;2024-02-21T01:14:31;102147.66;;;-8.38;61.89
74915;BME280;63475;45.140;-75.616;2024-02-21T01:16:34;102151.06;;;-8.40;61.63
74915;BME280;63475;45.140;-75.616;2024-02-21T01:18:37;102131.09;;;-8.44;61.85
74915;BME280;63475;45.140;-75.616;2024-02-21T01:20:42;102143.13;;;-8.46;62.41
74915;BME280;63475;45.140;-75.616;2024-02-21T01:22:45;102141.31;;;-8.48;61.94
74915;BME280;63475;45.140;-75.616;2024-02-21T01:24:47;102139.53;;;-8.51;62.92
74915;BME280;63475;45.140;-75.616;2024-02-21T01:26:50;102132.56;;;-8.53;62.48
74915;BME280;63475;45.140;-75.616;2024-02-21T01:28:52;102132.50;;;-8.55;62.86
74915;BME280;63475;45.140;-75.616;2024-02-21T01:30:55;102138.44;;;-8.57;62.89
74915;BME280;63475;45.140;-75.616;2024-02-21T01:32:57;102127.97;;;-8.62;62.67
74915;BME280;63475;45.140;-75.616;2024-02-21T01:35:00;102134.06;;;-8.60;62.77
74915;BME280;63475;45.140;-75.616;2024-02-21T01:37:04;102142.53;;;-8.64;63.63
74915;BME280;63475;45.140;-75.616;2024-02-21T01:39:09;102136.44;;;-8.66;64.22
74915;BME280;63475;45.140;-75.616;2024-02-21T01:41:11;102130.34;;;-8.68;63.81
74915;BME280;63475;45.140;-75.616;2024-02-21T01:43:19;102133.75;;;-8.69;63.64
74915;BME280;63475;45.140;-75.616;2024-02-21T01:45:22;102140.63;;;-8.69;64.10
74915;BME280;63475;45.140;-75.616;2024-02-21T01:47:25;102128.47;;;-8.72;64.35
74915;BME280;63475;45.140;-75.616;2024-02-21T01:49:28;102126.66;;;-8.76;63.75
74915;BME280;63475;45.140;-75.616;2024-02-21T01:51:31;102129.25;;;-8.76;64.63
74915;BME280;63475;45.140;-75.616;2024-02-21T01:53:38;102124.91;;;-8.77;64.58
74915;BME280;63475;45.140;-75.616;2024-02-21T01:55:42;102122.25;;;-8.79;64.40
74915;BME280;63475;45.140;-75.616;2024-02-21T01:57:45;102123.03;;;-8.81;64.86
74915;BME280;63475;45.140;-75.616;2024-02-21T01:59:49;102117.88;;;-8.81;64.60
74915;BME280;63475;45.140;-75.616;2024-02-21T02:01:53;102116.88;;;-8.85;65.19
74915;BME280;63475;45.140;-75.616;2024-02-21T02:03:59;102125.50;;;-8.84;65.34
74915;BME280;63475;45.140;-75.616;2024-02-21T02:06:05;102113.47;;;-8.84;64.63
74915;BME280;63475;45.140;-75.616;2024-02-21T02:08:10;102112.53;;;-8.86;65.68
74915;BME280;63475;45.140;-75.616;2024-02-21T02:10:14;102109.84;;;-8.89;65.55
74915;BME280;63475;45.140;-75.616;2024-02-21T02:12:16;102115.91;;;-8.88;65.36
74915;BME280;63475;45.140;-75.616;2024-02-21T02:14:19;102111.50;;;-8.91;65.48
74915;BME280;63475;45.140;-75.616;2024-02-21T02:16:22;102116.63;;;-8.92;65.35
74915;BME280;63475;45.140;-75.616;2024-02-21T02:18:24;102108.00;;;-8.93;65.21
74915;BME280;63475;45.140;-75.616;2024-02-21T02:20:27;102110.53;;;-8.94;65.60
74915;BME280;63475;45.140;-75.616;2024-02-21T02:22:32;102108.81;;;-8.94;66.51
74915;BME280;63475;45.140;-75.616;2024-02-21T02:24:37;102108.75;;;-8.97;65.77
74915;BME280;63475;45.140;-75.616;2024-02-21T02:26:39;102109.56;;;-8.98;65.83
74915;BME280;63475;45.140;-75.616;2024-02-21T02:28:42;102096.66;;;-8.98;65.97
74915;BME280;63475;45.140;-75.616;2024-02-21T02:30:45;102097.53;;;-8.97;65.25
74915;BME280;63475;45.140;-75.616;2024-02-21T02:32:48;102097.44;;;-9.00;65.60
74915;BME280;63475;45.140;-75.616;2024-02-21T02:34:51;102101.72;;;-9.01;65.59
74915;BME280;63475;45.140;-75.616;2024-02-21T02:36:53;102091.31;;;-9.02;65.85
74915;BME280;63475;45.140;-75.616;2024-02-21T02:38:57;102098.25;;;-9.01;66.04
74915;BME280;63475;45.140;-75.616;2024-02-21T02:41:00;102099.03;;;-9.04;65.85
74915;BME280;63475;45.140;-75.616;2024-02-21T02:43:04;102096.38;;;-9.05;65.94
74915;BME280;63475;45.140;-75.616;2024-02-21T02:45:07;102094.56;;;-9.08;66.56
74915;BME280;63475;45.140;-75.616;2024-02-21T02:47:09;102092.81;;;-9.09;66.22
74915;BME280;63475;45.140;-75.616;2024-02-21T02:49:12;102091.94;;;-9.10;66.36
74915;BME280;63475;45.140;-75.616;2024-02-21T02:51:14;102091.94;;;-9.10;66.58
74915;BME280;63475;45.140;-75.616;2024-02-21T02:53:17;102084.97;;;-9.12;65.94
74915;BME280;63475;45.140;-75.616;2024-02-21T02:55:20;102081.50;;;-9.13;66.96
74915;BME280;63475;45.140;-75.616;2024-02-21T02:57:23;102081.44;;;-9.14;66.98
74915;BME280;63475;45.140;-75.616;2024-02-21T02:59:25;102084.03;;;-9.14;66.83
74915;BME280;63475;45.140;-75.616;2024-02-21T03:01:28;102088.38;;;-9.13;66.83
74915;BME280;63475;45.140;-75.616;2024-02-21T03:03:31;102083.22;;;-9.13;66.78
74915;BME280;63475;45.140;-75.616;2024-02-21T03:05:34;102083.22;;;-9.13;66.39
74915;BME280;63475;45.140;-75.616;2024-02-21T03:07:37;102090.84;;;-9.16;66.80
74915;BME280;63475;45.140;-75.616;2024-02-21T03:09:41;102080.41;;;-9.21;66.74
74915;BME280;63475;45.140;-75.616;2024-02-21T03:11:46;102077.81;;;-9.21;66.37
74915;BME280;63475;45.140;-75.616;2024-02-21T03:13:49;102081.28;;;-9.20;67.07
74915;BME280;63475;45.140;-75.616;2024-02-21T03:15:53;102068.28;;;-9.22;65.91
74915;BME280;63475;45.140;-75.616;2024-02-21T03:17:56;102058.75;;;-9.24;67.04
74915;BME280;63475;45.140;-75.616;2024-02-21T03:19:58;102054.50;;;-9.22;66.75
74915;BME280;63475;45.140;-75.616;2024-02-21T03:22:02;102052.75;;;-9.23;66.52
74915;BME280;63475;45.140;-75.616;2024-02-21T03:24:05;102046.66;;;-9.25;66.58
74915;BME280;63475;45.140;-75.616;2024-02-21T03:26:08;102046.53;;;-9.28;67.23
74915;BME280;63475;45.140;-75.616;2024-02-21T03:28:11;102051.72;;;-9.28;66.84
74915;BME280;63475;45.140;-75.616;2024-02-21T03:30:14;102054.25;;;-9.30;67.53
74915;BME280;63475;45.140;-75.616;2024-02-21T03:32:16;102049.06;;;-9.30;66.71
74915;BME280;63475;45.140;-75.616;2024-02-21T03:34:18;102038.63;;;-9.33;67.39
74915;BME280;63475;45.140;-75.616;2024-02-21T03:36:21;102039.47;;;-9.34;67.61
74915;BME280;63475;45.140;-75.616;2024-02-21T03:38:23;102040.28;;;-9.35;66.79
74915;BME280;63475;45.140;-75.616;2024-02-21T03:40:26;102041.94;;;-9.37;67.35
74915;BME280;63475;45.140;-75.616;2024-02-21T03:42:29;102038.53;;;-9.36;67.74
74915;BME280;63475;45.140;-75.616;2024-02-21T03:44:34;102027.31;;;-9.36;66.90
74915;BME280;63475;45.140;-75.616;2024-02-21T03:46:36;102028.09;;;-9.39;67.70
74915;BME280;63475;45.140;-75.616;2024-02-21T03:48:39;102031.44;;;-9.43;67.71
74915;BME280;63475;45.140;-75.616;2024-02-21T03:50:43;102034.78;;;-9.46;67.44
74915;BME280;63475;45.140;-75.616;2024-02-21T03:52:45;102033.13;;;-9.44;68.22
74915;BME280;63475;45.140;-75.616;2024-02-21T03:54:48;102029.78;;;-9.41;67.59
74915;BME280;63475;45.140;-75.616;2024-02-21T03:56:51;102019.34;;;-9.44;67.58
74915;BME280;63475;45.140;-75.616;2024-02-21T03:58:53;102018.34;;;-9.48;67.63
74915;BME280;63475;45.140;-75.616;2024-02-21T04:00:56;102018.34;;;-9.48;68.22
74915;BME280;63475;45.140;-75.616;2024-02-21T04:02:58;102017.38;;;-9.51;67.37
74915;BME280;63475;45.140;-75.616;2024-02-21T04:05:01;102022.53;;;-9.51;68.23
74915;BME280;63475;45.140;-75.616;2024-02-21T04:07:03;102018.19;;;-9.52;68.41
74915;BME280;63475;45.140;-75.616;2024-02-21T04:09:10;102019.84;;;-9.54;68.35
74915;BME280;63475;45.140;-75.616;2024-02-21T04:11:13;102010.25;;;-9.58;67.84
74915;BME280;63475;45.140;-75.616;2024-02-21T04:13:15;102020.69;;;-9.55;68.68
74915;BME280;63475;45.140;-75.616;2024-02-21T04:15:18;102027.50;;;-9.57;67.74
74915;BME280;63475;45.140;-75.616;2024-02-21T04:17:22;102028.31;;;-9.58;68.35
74915;BME280;63475;45.140;-75.616;2024-02-21T04:19:24;102030.00;;;-9.59;67.98
74915;BME280;63475;45.140;-75.616;2024-02-21T04:21:27;102029.25;;;-9.56;68.62
74915;BME280;63475;45.140;-75.616;2024-02-21T04:23:29;102021.44;;;-9.58;68.93
74915;BME280;63475;45.140;-75.616;2024-02-21T04:25:32;102026.59;;;-9.58;68.40
74915;BME280;63475;45.140;-75.616;2024-02-21T04:27:34;102029.13;;;-9.59;68.49
74915;BME280;63475;45.140;-75.616;2024-02-21T04:29:37;102026.44;;;-9.64;68.37
74915;BME280;63475;45.140;-75.616;2024-02-21T04:31:39;102022.97;;;-9.64;69.44
74915;BME280;63475;45.140;-75.616;2024-02-21T04:33:42;102022.03;;;-9.66;69.08
74915;BME280;63475;45.140;-75.616;2024-02-21T04:35:45;102028.22;;;-9.61;68.20
74915;BME280;63475;45.140;-75.616;2024-02-21T04:37:49;102019.56;;;-9.63;67.99
74915;BME280;63475;45.140;-75.616;2024-02-21T04:39:51;102025.50;;;-9.66;69.95
74915;BME280;63475;45.140;-75.616;2024-02-21T04:41:54;102022.91;;;-9.66;69.78
74915;BME280;63475;45.140;-75.616;2024-02-21T04:43:56;102022.03;;;-9.66;70.57
74915;BME280;63475;45.140;-75.616;2024-02-21T04:45:59;102026.22;;;-9.70;68.87
74915;BME280;63475;45.140;-75.616;2024-02-21T04:48:02;102023.56;;;-9.71;69.33
74915;BME280;63475;45.140;-75.616;2024-02-21T04:50:06;102025.13;;;-9.77;67.92
74915;BME280;63475;45.140;-75.616;2024-02-21T04:52:08;102022.34;;;-9.83;65.90
74915;BME280;63475;45.140;-75.616;2024-02-21T04:54:11;102030.78;;;-9.88;68.07
74915;BME280;63475;45.140;-75.616;2024-02-21T04:56:13;102017.00;;;-9.89;68.63
74915;BME280;63475;45.140;-75.616;2024-02-21T04:58:16;102012.50;;;-9.94;67.25
74915;BME280;63475;45.140;-75.616;2024-02-21T05:00:19;102008.03;;;-9.98;66.57
74915;BME280;63475;45.140;-75.616;2024-02-21T05:02:21;102007.06;;;-10.02;65.92
74915;BME280;63475;45.140;-75.616;2024-02-21T05:04:26;101999.06;;;-10.09;66.20
74915;BME280;63475;45.140;-75.616;2024-02-21T05:06:29;102001.59;;;-10.11;67.84
74915;BME280;63475;45.140;-75.616;2024-02-21T05:08:33;102001.47;;;-10.14;68.74
74915;BME280;63475;45.140;-75.616;2024-02-21T05:10:35;101997.13;;;-10.15;69.25
74915;BME280;63475;45.140;-75.616;2024-02-21T05:12:38;101997.13;;;-10.15;69.97
74915;BME280;63475;45.140;-75.616;2024-02-21T05:14:41;101993.63;;;-10.17;71.98
74915;BME280;63475;45.140;-75.616;2024-02-21T05:16:44;102002.25;;;-10.17;71.09
74915;BME280;63475;45.140;-75.616;2024-02-21T05:18:47;101995.28;;;-10.19;70.63
74915;BME280;63475;45.140;-75.616;2024-02-21T05:20:50;101989.19;;;-10.21;71.03
74915;BME280;63475;45.140;-75.616;2024-02-21T05:22:52;101996.09;;;-10.20;71.24
74915;BME280;63475;45.140;-75.616;2024-02-21T05:24:55;101993.56;;;-10.19;71.05
74915;BME280;63475;45.140;-75.616;2024-02-21T05:26:57;101991.00;;;-10.19;70.92
74915;BME280;63475;45.140;-75.616;2024-02-21T05:29:00;101989.22;;;-10.20;71.27
74915;BME280;63475;45.140;-75.616;2024-02-21T05:31:02;101984.91;;;-10.21;71.71
74915;BME280;63475;45.140;-75.616;2024-02-21T05:33:05;101988.41;;;-10.19;71.92
74915;BME280;63475;45.140;-75.616;2024-02-21T05:35:09;101983.25;;;-10.19;72.02
74915;BME280;63475;45.140;-75.616;2024-02-21T05:37:12;101983.25;;;-10.19;72.08
74915;BME280;63475;45.140;-75.616;2024-02-21T05:39:15;101984.25;;;-10.15;73.37
74915;BME280;63475;45.140;-75.616;2024-02-21T05:41:18;101984.25;;;-10.15;73.02
74915;BME280;63475;45.140;-75.616;2024-02-21T05:43:21;101974.81;;;-10.15;72.76
74915;BME280;63475;45.140;-75.616;2024-02-21T05:45:23;101969.69;;;-10.13;72.99
74915;BME280;63475;45.140;-75.616;2024-02-21T05:47:26;101970.53;;;-10.14;72.90
74915;BME280;63475;45.140;-75.616;2024-02-21T05:49:28;101974.84;;;-10.13;72.20
74915;BME280;63475;45.140;-75.616;2024-02-21T05:51:34;101976.50;;;-10.15;71.39
74915;BME280;63475;45.140;-75.616;2024-02-21T05:53:37;101971.22;;;-10.18;72.58
74915;BME280;63475;45.140;-75.616;2024-02-21T05:55:42;101970.41;;;-10.17;71.82
74915;BME280;63475;45.140;-75.616;2024-02-21T05:57:45;101975.56;;;-10.17;72.34
74915;BME280;63475;45.140;-75.616;2024-02-21T05:59:48;101979.91;;;-10.16;71.46
74915;BME280;63475;45.140;-75.616;2024-02-21T06:01:59;101979.03;;;-10.17;70.71
74915;BME280;63475;45.140;-75.616;2024-02-21T06:04:01;101970.19;;;-10.23;71.50
74915;BME280;63475;45.140;-75.616;2024-02-21T06:06:04;101976.22;;;-10.23;72.56
74915;BME280;63475;45.140;-75.616;2024-02-21T06:08:07;101971.00;;;-10.24;70.43
74915;BME280;63475;45.140;-75.616;2024-02-21T06:10:11;101964.91;;;-10.26;70.48
74915;BME280;63475;45.140;-75.616;2024-02-21T06:12:14;101972.41;;;-10.34;70.15
74915;BME280;63475;45.140;-75.616;2024-02-21T06:14:16;101972.34;;;-10.35;70.89
74915;BME280;63475;45.140;-75.616;2024-02-21T06:16:19;101970.34;;;-10.42;70.67
74915;BME280;63475;45.140;-75.616;2024-02-21T06:18:23;101972.94;;;-10.42;70.74
74915;BME280;63475;45.140;-75.616;2024-02-21T06:20:25;101974.59;;;-10.44;70.34
74915;BME280;63475;45.140;-75.616;2024-02-21T06:22:28;101970.19;;;-10.47;69.96
74915;BME280;63475;45.140;-75.616;2024-02-21T06:24:31;101974.28;;;-10.54;69.15
74915;BME280;63475;45.140;-75.616;2024-02-21T06:26:33;101970.63;;;-10.59;68.16
74915;BME280;63475;45.140;-75.616;2024-02-21T06:28:36;101972.84;;;-10.68;67.35
74915;BME280;63475;45.140;-75.616;2024-02-21T06:30:40;101983.22;;;-10.66;69.85
74915;BME280;63475;45.140;-75.616;2024-02-21T06:32:42;101982.34;;;-10.67;71.45
74915;BME280;63475;45.140;-75.616;2024-02-21T06:34:45;101976.19;;;-10.70;70.22
74915;BME280;63475;45.140;-75.616;2024-02-21T06:36:48;101974.31;;;-10.74;69.92
74915;BME280;63475;45.140;-75.616;2024-02-21T06:38:50;101978.41;;;-10.81;69.43
74915;BME280;63475;45.140;-75.616;2024-02-21T06:40:53;101973.00;;;-10.87;67.88
74915;BME280;63475;45.140;-75.616;2024-02-21T06:42:56;101964.09;;;-10.95;68.28
74915;BME280;63475;45.140;-75.616;2024-02-21T06:44:59;101968.38;;;-10.96;69.73
74915;BME280;63475;45.140;-75.616;2024-02-21T06:47:01;101963.97;;;-10.98;70.54
74915;BME280;63475;45.140;-75.616;2024-02-21T06:49:05;101971.75;;;-10.97;71.23
74915;BME280;63475;45.140;-75.616;2024-02-21T06:51:08;101969.97;;;-10.99;71.14
74915;BME280;63475;45.140;-75.616;2024-02-21T06:53:11;101963.88;;;-11.01;70.91
74915;BME280;63475;45.140;-75.616;2024-02-21T06:55:14;101959.44;;;-11.05;70.25
74915;BME280;63475;45.140;-75.616;2024-02-21T06:57:17;101963.63;;;-11.07;70.04
74915;BME280;63475;45.140;-75.616;2024-02-21T06:59:19;101963.41;;;-11.13;69.53
74915;BME280;63475;45.140;-75.616;2024-02-21T07:01:22;101955.47;;;-11.18;70.01
74915;BME280;63475;45.140;-75.616;2024-02-21T07:03:25;101938.94;;;-11.25;71.12
74915;BME280;63475;45.140;-75.616;2024-02-21T07:05:29;101962.34;;;-11.19;71.75
74915;BME280;63475;45.140;-75.616;2024-02-21T07:07:31;101961.44;;;-11.19;71.78
74915;BME280;63475;45.140;-75.616;2024-02-21T07:09:34;101956.44;;;-11.16;72.95
74915;BME280;63475;45.140;-75.616;2024-02-21T07:11:36;101953.84;;;-11.16;72.55
74915;BME280;63475;45.140;-75.616;2024-02-21T07:13:39;101949.44;;;-11.19;72.22
74915;BME280;63475;45.140;-75.616;2024-02-21T07:15:42;101936.50;;;-11.22;71.72
74915;BME280;63475;45.140;-75.616;2024-02-21T07:17:45;101935.63;;;-11.21;72.37
74915;BME280;63475;45.140;-75.616;2024-02-21T07:19:48;101932.19;;;-11.21;72.78
74915;BME280;63475;45.140;-75.616;2024-02-21T07:21:50;101934.75;;;-11.21;73.94
74915;BME280;63475;45.140;-75.616;2024-02-21T07:23:53;101936.69;;;-11.16;74.20
74915;BME280;63475;45.140;-75.616;2024-02-21T07:25:55;101934.06;;;-11.17;73.84
74915;BME280;63475;45.140;-75.616;2024-02-21T07:27:58;101935.06;;;-11.13;74.79
74915;BME280;63475;45.140;-75.616;2024-02-21T07:30:01;101924.69;;;-11.15;74.42
74915;BME280;63475;45.140;-75.616;2024-02-21T07:32:03;101930.84;;;-11.11;73.60
74915;BME280;63475;45.140;-75.616;2024-02-21T07:34:07;101928.34;;;-11.10;74.52
74915;BME280;63475;45.140;-75.616;2024-02-21T07:36:11;101929.22;;;-11.09;74.72
74915;BME280;63475;45.140;-75.616;2024-02-21T07:38:14;101925.81;;;-11.08;74.27
74915;BME280;63475;45.140;-75.616;2024-02-21T07:40:17;101925.81;;;-11.08;73.61
74915;BME280;63475;45.140;-75.616;2024-02-21T07:42:20;101923.94;;;-11.12;73.74
74915;BME280;63475;45.140;-75.616;2024-02-21T07:44:22;101920.59;;;-11.10;73.96
74915;BME280;63475;45.140;-75.616;2024-02-21T07:46:27;101919.72;;;-11.10;73.63
74915;BME280;63475;45.140;-75.616;2024-02-21T07:48:30;101923.19;;;-11.10;73.98
74915;BME280;63475;45.140;-75.616;2024-02-21T07:50:36;101924.81;;;-11.12;73.41
74915;BME280;63475;45.140;-75.616;2024-02-21T07:52:39;101925.69;;;-11.11;73.87
74915;BME280;63475;45.140;-75.616;2024-02-21T07:54:42;101922.31;;;-11.10;73.41
74915;BME280;63475;45.140;-75.616;2024-02-21T07:56:44;101915.41;;;-11.11;73.13
74915;BME280;63475;45.140;-75.616;2024-02-21T07:58:47;101929.28;;;-11.08;73.62
74915;BME280;63475;45.140;-75.616;2024-02-21T08:00:49;101916.34;;;-11.09;73.47
74915;BME280;63475;45.140;-75.616;2024-02-21T08:02:52;101914.63;;;-11.09;73.76
74915;BME280;63475;45.140;-75.616;2024-02-21T08:04:55;101911.19;;;-11.09;73.66
74915;BME280;63475;45.140;-75.616;2024-02-21T08:06:57;101907.78;;;-11.08;73.36
74915;BME280;63475;45.140;-75.616;2024-02-21T08:09:04;101906.91;;;-11.09;73.18
74915;BME280;63475;45.140;-75.616;2024-02-21T08:11:06;101894.84;;;-11.10;73.09
74915;BME280;63475;45.140;-75.616;2024-02-21T08:13:09;101887.94;;;-11.11;72.97
74915;BME280;63475;45.140;-75.616;2024-02-21T08:15:12;101888.75;;;-11.12;72.78
74915;BME280;63475;45.140;-75.616;2024-02-21T08:17:14;101892.22;;;-11.11;72.99
74915;BME280;63475;45.140;-75.616;2024-02-21T08:19:17;101883.50;;;-11.15;73.27
74915;BME280;63475;45.140;-75.616;2024-02-21T08:21:20;101889.53;;;-11.14;72.59
74915;BME280;63475;45.140;-75.616;2024-02-21T08:23:23;101893.91;;;-11.12;72.78
74915;BME280;63475;45.140;-75.616;2024-02-21T08:25:26;101890.41;;;-11.14;72.63
74915;BME280;63475;45.140;-75.616;2024-02-21T08:27:29;101892.22;;;-11.11;72.55
74915;BME280;63475;45.140;-75.616;2024-02-21T08:29:32;101891.34;;;-11.12;73.03
74915;BME280;63475;45.140;-75.616;2024-02-21T08:31:34;101887.88;;;-11.12;72.95
74915;BME280;63475;45.140;-75.616;2024-02-21T08:33:37;101887.06;;;-11.11;73.06
74915;BME280;63475;45.140;-75.616;2024-02-21T08:35:39;101880.91;;;-11.15;72.36
74915;BME280;63475;45.140;-75.616;2024-02-21T08:37:44;101887.75;;;-11.16;73.13
74915;BME280;63475;45.140;-75.616;2024-02-21T08:39:50;101890.28;;;-11.17;72.88
74915;BME280;63475;45.140;-75.616;2024-02-21T08:41:52;101878.22;;;-11.18;73.15
74915;BME280;63475;45.140;-75.616;2024-02-21T08:43:58;101878.16;;;-11.20;73.74
74915;BME280;63475;45.140;-75.616;2024-02-21T08:46:01;101866.09;;;-11.22;72.64
74915;BME280;63475;45.140;-75.616;2024-02-21T08:48:05;101866.09;;;-11.21;72.73
74915;BME280;63475;45.140;-75.616;2024-02-21T08:50:09;101865.22;;;-11.21;72.26
74915;BME280;63475;45.140;-75.616;2024-02-21T08:52:28;101860.88;;;-11.24;72.81
74915;BME280;63475;45.140;-75.616;2024-02-21T08:54:32;101862.56;;;-11.24;72.71
74915;BME280;63475;45.140;-75.616;2024-02-21T08:56:38;101860.06;;;-11.23;73.31
74915;BME280;63475;45.140;-75.616;2024-02-21T08:58:40;101863.38;;;-11.25;73.20
74915;BME280;63475;45.140;-75.616;2024-02-21T09:00:43;101860.69;;;-11.28;72.83
74915;BME280;63475;45.140;-75.616;2024-02-21T09:02:46;101847.75;;;-11.30;73.69
74915;BME280;63475;45.140;-75.616;2024-02-21T09:04:48;101846.81;;;-11.32;73.50
74915;BME280;63475;45.140;-75.616;2024-02-21T09:06:51;101849.50;;;-11.29;73.44
74915;BME280;63475;45.140;-75.616;2024-02-21T09:08:56;101847.75;;;-11.30;73.43
74915;BME280;63475;45.140;-75.616;2024-02-21T09:11:00;101848.50;;;-11.32;72.94
74915;BME280;63475;45.140;-75.616;2024-02-21T09:13:05;101842.50;;;-11.33;73.50
74915;BME280;63475;45.140;-75.616;2024-02-21T09:15:10;101835.69;;;-11.31;73.44
74915;BME280;63475;45.140;-75.616;2024-02-21T09:17:12;101832.25;;;-11.31;74.42
74915;BME280;63475;45.140;-75.616;2024-02-21T09:19:16;101821.91;;;-11.33;74.22
74915;BME280;63475;45.140;-75.616;2024-02-21T09:21:20;101822.72;;;-11.34;73.77
74915;BME280;63475;45.140;-75.616;2024-02-21T09:23:26;101834.66;;;-11.36;74.06
74915;BME280;63475;45.140;-75.616;2024-02-21T09:25:29;101831.25;;;-11.35;73.34
74915;BME280;63475;45.140;-75.616;2024-02-21T09:27:32;101833.72;;;-11.38;73.90
74915;BME280;63475;45.140;-75.616;2024-02-21T09:29:35;101831.91;;;-11.40;73.53
74915;BME280;63475;45.140;-75.616;2024-02-21T09:31:38;101834.72;;;-11.34;73.62
74915;BME280;63475;45.140;-75.616;2024-02-21T09:33:42;101828.63;;;-11.36;73.92
74915;BME280;63475;45.140;-75.616;2024-02-21T09:35:44;101831.06;;;-11.39;73.98
74915;BME280;63475;45.140;-75.616;2024-02-21T09:37:48;101831.94;;;-11.39;73.26
74915;BME280;63475;45.140;-75.616;2024-02-21T09:39:51;101833.59;;;-11.41;73.25
74915;BME280;63475;45.140;-75.616;2024-02-21T09:41:59;101828.50;;;-11.39;73.34
74915;BME280;63475;45.140;-75.616;2024-02-21T09:44:06;101832.84;;;-11.38;73.77
74915;BME280;63475;45.140;-75.616;2024-02-21T09:46:16;101830.19;;;-11.40;73.34
74915;BME280;63475;45.140;-75.616;2024-02-21T09:48:29;101829.38;;;-11.39;73.39
74915;BME280;63475;45.140;-75.616;2024-02-21T09:50:40;101828.38;;;-11.42;74.47
74915;BME280;63475;45.140;-75.616;2024-02-21T09:52:46;101827.63;;;-11.40;74.56
74915;BME280;63475;45.140;-75.616;2024-02-21T09:54:50;101818.16;;;-11.41;74.16
74915;BME280;63475;45.140;-75.616;2024-02-21T09:56:54;101818.16;;;-11.41;74.32
74915;BME280;63475;45.140;-75.616;2024-02-21T09:58:57;101807.75;;;-11.44;73.82
74915;BME280;63475;45.140;-75.616;2024-02-21T10:01:00;101806.00;;;-11.45;73.77
74915;BME280;63475;45.140;-75.616;2024-02-21T10:03:11;101796.41;;;-11.49;73.81
74915;BME280;63475;45.140;-75.616;2024-02-21T10:05:15;101812.94;;;-11.42;73.75
74915;BME280;63475;45.140;-75.616;2024-02-21T10:07:20;101810.28;;;-11.45;74.19
74915;BME280;63475;45.140;-75.616;2024-02-21T10:09:26;101805.94;;;-11.46;74.01
74915;BME280;63475;45.140;-75.616;2024-02-21T10:11:32;101805.00;;;-11.48;73.55
74915;BME280;63475;45.140;-75.616;2024-02-21T10:13:38;101815.31;;;-11.48;73.59
74915;BME280;63475;45.140;-75.616;2024-02-21T10:15:41;101803.31;;;-11.48;73.75
74915;BME280;63475;45.140;-75.616;2024-02-21T10:17:44;101807.59;;;-11.48;73.67
74915;BME280;63475;45.140;-75.616;2024-02-21T10:19:46;101798.00;;;-11.53;73.57
74915;BME280;63475;45.140;-75.616;2024-02-21T10:22:07;101814.50;;;-11.47;73.93
74915;BME280;63475;45.140;-75.616;2024-02-21T10:24:12;101803.25;;;-11.49;73.76
74915;BME280;63475;45.140;-75.616;2024-02-21T10:26:16;101814.53;;;-11.46;73.73